createdAt,value
2023-04-06T00:00:25.869Z,10.89
2023-04-06T00:01:26.385Z,11.39
2023-04-06T00:02:23.727Z,11.5
2023-04-06T00:04:23.514Z,11.69
2023-04-06T00:05:23.790Z,10.60
2023-04-06T00:06:23.846Z,11.80
2023-04-06T00:07:23.604Z,11.10
2023-04-06T00:08:23.000Z,11.5
2023-04-06T00:09:24.503Z,10.19
2023-04-06T00:10:23.780Z,10.30
2023-04-06T00:11:22.665Z,12.60
2023-04-06T00:12:23.842Z,10.89
2023-04-06T00:13:22.963Z,9.800
2023-04-06T00:14:23.200Z,11.60
2023-04-06T00:15:23.338Z,10.19
2023-04-06T00:16:24.965Z,10.60
2023-04-06T00:17:22.935Z,10.19
2023-04-06T00:18:23.929Z,11.30
2023-04-06T00:19:23.813Z,12.39
2023-04-06T00:20:24.067Z,10.30
2023-04-06T00:21:23.238Z,11.10
2023-04-06T00:22:23.475Z,11.19
2023-04-06T00:23:23.657Z,10.89
2023-04-06T00:24:22.981Z,12.19
2023-04-06T00:25:24.005Z,11.60
2023-04-06T00:26:22.968Z,11
2023-04-06T00:27:23.693Z,12.69
2023-04-06T00:28:22.937Z,11.89
2023-04-06T00:29:23.956Z,10
2023-04-06T00:30:23.268Z,11
2023-04-06T00:31:23.141Z,11.80
2023-04-06T00:32:23.649Z,11.30
2023-04-06T00:33:23.161Z,11.69
2023-04-06T00:34:23.933Z,10.89
2023-04-06T00:35:23.385Z,12
2023-04-06T00:36:23.354Z,10.69
2023-04-06T00:37:23.271Z,11.30
2023-04-06T00:38:23.680Z,11
2023-04-06T00:39:23.267Z,10.19
2023-04-06T00:40:23.646Z,11.89
2023-04-06T00:41:23.194Z,11.30
2023-04-06T00:43:22.738Z,10.80
2023-04-06T00:44:23.671Z,11.19
2023-04-06T00:45:23.599Z,10.30
2023-04-06T00:46:24.651Z,10.39
2023-04-06T00:47:23.516Z,10.89
2023-04-06T00:48:23.303Z,11.10
2023-04-06T00:49:23.207Z,10
2023-04-06T00:50:23.517Z,11.5
2023-04-06T00:51:23.507Z,9.5
2023-04-06T00:52:23.336Z,10.60
2023-04-06T00:53:23.360Z,11.39
2023-04-06T00:55:23.225Z,10.5
2023-04-06T00:56:22.823Z,11.69
2023-04-06T00:57:23.145Z,10.5
2023-04-06T00:58:22.942Z,10.89
2023-04-06T01:00:24.473Z,9.899
2023-04-06T01:02:26.128Z,11.30
2023-04-06T01:03:22.819Z,11
2023-04-06T01:04:23.430Z,9.399
2023-04-06T01:05:23.197Z,10.60
2023-04-06T01:07:23.158Z,11.30
2023-04-06T01:08:23.619Z,10.60
2023-04-06T01:09:23.887Z,11.39
2023-04-06T01:12:23.581Z,10.60
2023-04-06T01:14:22.687Z,11
2023-04-06T01:15:23.616Z,11.39
2023-04-06T01:16:23.819Z,10.30
2023-04-06T01:17:23.010Z,10.60
2023-04-06T01:18:24.341Z,10.19
2023-04-06T01:19:23.564Z,11.10
2023-04-06T01:20:23.811Z,10.30
2023-04-06T01:21:23.037Z,11.69
2023-04-06T01:22:23.654Z,10.30
2023-04-06T01:23:23.100Z,10.80
2023-04-06T01:24:23.172Z,11.39
2023-04-06T01:25:23.113Z,11
2023-04-06T01:26:23.572Z,9.699
2023-04-06T01:27:23.162Z,10.60
2023-04-06T01:28:22.610Z,10.19
2023-04-06T01:29:23.396Z,10.10
2023-04-06T01:30:23.314Z,10.5
2023-04-06T01:31:23.658Z,10.89
2023-04-06T01:32:23.638Z,11.19
2023-04-06T01:33:23.569Z,10.60
2023-04-06T01:34:23.062Z,11.10
2023-04-06T01:35:23.648Z,10.69
2023-04-06T01:36:23.873Z,11.10
2023-04-06T01:37:23.384Z,10.89
2023-04-06T01:38:23.041Z,11.5
2023-04-06T01:39:23.849Z,10.39
2023-04-06T01:40:23.821Z,11.39
2023-04-06T01:41:23.525Z,12.5
2023-04-06T01:42:23.292Z,10.5
2023-04-06T01:43:24.066Z,10.69
2023-04-06T01:44:23.805Z,10.30
2023-04-06T01:45:23.605Z,10.89
2023-04-06T01:46:22.985Z,11.60
2023-04-06T01:47:23.161Z,10.80
2023-04-06T01:48:22.981Z,10
2023-04-06T01:49:23.609Z,10.69
2023-04-06T01:50:23.319Z,11.60
2023-04-06T01:51:23.275Z,10.60
2023-04-06T01:52:22.991Z,10.30
2023-04-06T01:53:23.275Z,11.10
2023-04-06T01:54:23.612Z,10.80
2023-04-06T01:55:23.397Z,11
2023-04-06T01:56:23.046Z,10.60
2023-04-06T01:57:23.427Z,10
2023-04-06T01:58:23.602Z,10.60
2023-04-06T01:59:24.133Z,10.30
2023-04-06T02:00:29.902Z,9.899
2023-04-06T02:01:23.141Z,10.80
2023-04-06T02:02:23.803Z,11.60
2023-04-06T02:03:24.833Z,11.10
2023-04-06T02:04:23.596Z,11.39
2023-04-06T02:05:22.978Z,10.80
2023-04-06T02:06:23.136Z,10.5
2023-04-06T02:07:23.314Z,10.30
2023-04-06T02:08:23.844Z,10.60
2023-04-06T02:09:24.110Z,11.69
2023-04-06T02:10:23.401Z,10.5
2023-04-06T02:11:24.170Z,11.39
2023-04-06T02:12:23.293Z,10.19
2023-04-06T02:13:23.263Z,10.80
2023-04-06T02:14:23.700Z,11.5
2023-04-06T02:15:24.360Z,11.10
2023-04-06T02:17:23.683Z,10.89
2023-04-06T02:18:24.264Z,11.39
2023-04-06T02:19:23.779Z,10.5
2023-04-06T02:20:23.815Z,10.30
2023-04-06T02:21:23.815Z,11.10
2023-04-06T02:22:23.837Z,10.89
2023-04-06T02:23:23.468Z,11.5
2023-04-06T02:24:23.794Z,11.60
2023-04-06T02:25:23.089Z,11.30
2023-04-06T02:26:24.305Z,12.5
2023-04-06T02:27:24.062Z,13.5
2023-04-06T02:28:23.277Z,12.39
2023-04-06T02:29:23.664Z,11.5
2023-04-06T02:30:24.640Z,10.80
2023-04-06T02:31:23.096Z,10.89
2023-04-06T02:32:23.330Z,11.10
2023-04-06T02:33:23.803Z,12.69
2023-04-06T02:34:24.111Z,12.19
2023-04-06T02:35:23.381Z,12.89
2023-04-06T02:36:23.172Z,12
2023-04-06T02:37:23.197Z,11
2023-04-06T02:38:24.191Z,11.80
2023-04-06T02:39:23.298Z,10.10
2023-04-06T02:40:24.111Z,10.89
2023-04-06T02:41:23.647Z,10.69
2023-04-06T02:42:23.818Z,11.10
2023-04-06T02:43:23.306Z,11.30
2023-04-06T02:44:23.344Z,10.89
2023-04-06T02:45:23.204Z,10.80
2023-04-06T02:46:23.487Z,11.5
2023-04-06T02:47:23.738Z,11.19
2023-04-06T02:48:23.507Z,10.10
2023-04-06T02:49:23.677Z,12.10
2023-04-06T02:50:23.644Z,10.30
2023-04-06T02:51:23.557Z,12
2023-04-06T02:52:23.849Z,11.30
2023-04-06T02:53:22.386Z,12
2023-04-06T02:54:23.369Z,10.10
2023-04-06T02:55:23.528Z,13.10
2023-04-06T02:56:23.484Z,11.19
2023-04-06T02:57:23.450Z,10.5
2023-04-06T02:59:23.862Z,11
2023-04-06T03:00:24.567Z,10.80
2023-04-06T03:01:24.078Z,11.10
2023-04-06T03:02:23.188Z,11.5
2023-04-06T03:03:23.265Z,11.19
2023-04-06T03:04:23.599Z,10.69
2023-04-06T03:05:23.645Z,11.30
2023-04-06T03:06:23.941Z,11
2023-04-06T03:07:23.643Z,11.19
2023-04-06T03:08:23.437Z,10.5
2023-04-06T03:09:23.615Z,12.19
2023-04-06T03:10:24.084Z,10.10
2023-04-06T03:11:23.549Z,11.5
2023-04-06T03:12:23.935Z,11
2023-04-06T03:13:23.746Z,10.89
2023-04-06T03:15:24.196Z,11
2023-04-06T03:16:23.632Z,11.89
2023-04-06T03:17:23.765Z,11.80
2023-04-06T03:18:23.226Z,11.10
2023-04-06T03:19:23.064Z,10.10
2023-04-06T03:20:23.606Z,13.10
2023-04-06T03:21:23.450Z,10.80
2023-04-06T03:22:22.658Z,11.19
2023-04-06T03:23:23.224Z,10.60
2023-04-06T03:24:23.249Z,10.89
2023-04-06T03:25:23.067Z,10.69
2023-04-06T03:26:23.355Z,11.30
2023-04-06T03:27:23.956Z,11
2023-04-06T03:28:23.478Z,10.5
2023-04-06T03:29:23.658Z,11
2023-04-06T03:30:23.307Z,10.19
2023-04-06T03:31:23.138Z,10.89
2023-04-06T03:32:23.193Z,11.69
2023-04-06T03:33:23.435Z,10.80
2023-04-06T03:35:23.443Z,10.89
2023-04-06T03:36:23.716Z,10.60
2023-04-06T03:37:23.367Z,11.60
2023-04-06T03:38:23.157Z,11.69
2023-04-06T03:39:23.871Z,10.60
2023-04-06T03:41:23.302Z,10.39
2023-04-06T03:42:23.457Z,10.69
2023-04-06T03:43:22.856Z,12.39
2023-04-06T03:44:23.562Z,11.19
2023-04-06T03:45:23.300Z,11.5
2023-04-06T03:46:23.232Z,11
2023-04-06T03:47:23.205Z,12
2023-04-06T03:48:23.132Z,11
2023-04-06T03:49:23.193Z,10.60
2023-04-06T03:50:23.530Z,10.19
2023-04-06T03:51:23.641Z,11.10
2023-04-06T03:52:23.330Z,11.60
2023-04-06T03:53:23.248Z,11
2023-04-06T03:54:23.473Z,10.60
2023-04-06T03:55:24.231Z,10.30
2023-04-06T03:56:24.237Z,11.30
2023-04-06T03:57:23.245Z,12
2023-04-06T03:58:22.985Z,10.39
2023-04-06T03:59:23.531Z,10.89
2023-04-06T04:00:24.280Z,12.39
2023-04-06T04:01:23.394Z,11.80
2023-04-06T04:02:23.795Z,11.69
2023-04-06T04:03:23.719Z,10.69
2023-04-06T04:04:23.753Z,10.80
2023-04-06T04:05:24.079Z,10.10
2023-04-06T04:06:24.422Z,11.89
2023-04-06T04:07:23.584Z,10.89
2023-04-06T04:08:23.674Z,10.39
2023-04-06T04:09:24.092Z,10.5
2023-04-06T04:10:24.940Z,12.5
2023-04-06T04:11:23.515Z,10.89
2023-04-06T04:13:22.475Z,11
2023-04-06T04:14:23.368Z,11.80
2023-04-06T04:16:24.235Z,11.30
2023-04-06T04:17:23.454Z,11.60
2023-04-06T04:18:23.643Z,10.69
2023-04-06T04:19:28.601Z,11.69
2023-04-06T04:20:23.774Z,12.30
2023-04-06T04:21:22.606Z,11
2023-04-06T04:22:23.720Z,14.39
2023-04-06T04:23:23.666Z,12.10
2023-04-06T04:24:23.490Z,11.39
2023-04-06T04:25:24.189Z,12.30
2023-04-06T04:26:23.325Z,12.89
2023-04-06T04:27:23.261Z,11.69
2023-04-06T04:29:23.257Z,13.39
2023-04-06T04:30:23.572Z,10.5
2023-04-06T04:31:22.758Z,12.39
2023-04-06T04:32:23.642Z,11.5
2023-04-06T04:33:23.388Z,13.69
2023-04-06T04:34:23.188Z,11.89
2023-04-06T04:35:23.829Z,11.69
2023-04-06T04:36:23.476Z,12.5
2023-04-06T04:37:23.339Z,12.19
2023-04-06T04:38:23.298Z,12
2023-04-06T04:39:23.503Z,11.10
2023-04-06T04:40:23.240Z,12.30
2023-04-06T04:41:22.776Z,11.5
2023-04-06T04:42:22.907Z,11.60
2023-04-06T04:43:24.015Z,11
2023-04-06T04:44:23.471Z,11.19
2023-04-06T04:45:23.680Z,11.5
2023-04-06T04:46:24.270Z,12.39
2023-04-06T04:47:23.651Z,11.30
2023-04-06T04:48:23.729Z,11.39
2023-04-06T04:49:24.712Z,11.10
2023-04-06T04:50:24.460Z,11.89
2023-04-06T04:51:24.057Z,11
2023-04-06T04:52:24.235Z,10.89
2023-04-06T04:53:25.936Z,11.30
2023-04-06T04:54:25.300Z,10.89
2023-04-06T04:55:24.972Z,11.60
2023-04-06T04:56:25.492Z,10.60
2023-04-06T04:57:26.414Z,10.39
2023-04-06T04:58:26.667Z,11
2023-04-06T04:59:25.268Z,10.60
2023-04-06T05:00:24.639Z,11.30
2023-04-06T05:01:23.837Z,12
2023-04-06T05:02:24.011Z,9.899
2023-04-06T05:03:23.620Z,11.39
2023-04-06T05:04:23.662Z,11.60
2023-04-06T05:05:24.388Z,12
2023-04-06T05:06:24.170Z,10.5
2023-04-06T05:07:24.115Z,11.39
2023-04-06T05:08:23.978Z,11.69
2023-04-06T05:09:23.821Z,11.19
2023-04-06T05:10:23.701Z,11.80
2023-04-06T05:11:24.261Z,10.5
2023-04-06T05:12:23.397Z,10.80
2023-04-06T05:13:23.553Z,12.10
2023-04-06T05:14:23.874Z,10.5
2023-04-06T05:15:24.626Z,11.10
2023-04-06T05:16:23.778Z,10.39
2023-04-06T05:17:24.333Z,11.69
2023-04-06T05:18:23.242Z,12.39
2023-04-06T05:19:24.018Z,10.80
2023-04-06T05:20:23.456Z,12.19
2023-04-06T05:21:23.605Z,12
2023-04-06T05:23:23.527Z,14.5
2023-04-06T05:24:23.567Z,13.30
2023-04-06T05:25:23.420Z,13.39
2023-04-06T05:26:23.849Z,14.5
2023-04-06T05:27:23.523Z,12.69
2023-04-06T05:28:23.730Z,12
2023-04-06T05:29:23.400Z,12.30
2023-04-06T05:30:23.718Z,12.69
2023-04-06T05:31:23.212Z,11.39
2023-04-06T05:32:23.020Z,13.30
2023-04-06T05:33:24.117Z,12.5
2023-04-06T05:34:23.827Z,13.5
2023-04-06T05:35:24.034Z,12.39
2023-04-06T05:36:24.172Z,12
2023-04-06T05:37:23.417Z,12.69
2023-04-06T05:38:23.121Z,12.80
2023-04-06T05:39:23.891Z,13.39
2023-04-06T05:40:23.310Z,12.39
2023-04-06T05:41:23.656Z,12.19
2023-04-06T05:42:22.802Z,12.60
2023-04-06T05:44:23.456Z,13
2023-04-06T05:45:24.137Z,13.5
2023-04-06T05:46:23.726Z,15.39
2023-04-06T05:47:23.860Z,13.69
2023-04-06T05:48:23.866Z,13.89
2023-04-06T05:49:23.441Z,13.80
2023-04-06T05:50:23.947Z,11.89
2023-04-06T05:51:23.824Z,13.60
2023-04-06T05:52:23.872Z,13.39
2023-04-06T05:53:23.947Z,15.39
2023-04-06T05:54:23.983Z,13.89
2023-04-06T05:55:24.169Z,12.89
2023-04-06T05:56:23.554Z,15.30
2023-04-06T05:57:23.186Z,14.10
2023-04-06T05:58:23.848Z,14.89
2023-04-06T05:59:23.347Z,14.69
2023-04-06T06:00:23.783Z,14.5
2023-04-06T06:01:24.357Z,13.60
2023-04-06T06:02:24.262Z,15.19
2023-04-06T06:03:23.746Z,15.89
2023-04-06T06:04:23.596Z,15.19
2023-04-06T06:05:23.475Z,13.60
2023-04-06T06:06:23.336Z,14.19
2023-04-06T06:07:23.630Z,14.80
2023-04-06T06:08:23.493Z,14.10
2023-04-06T06:09:23.403Z,15.19
2023-04-06T06:10:23.386Z,13.89
2023-04-06T06:11:22.770Z,13.39
2023-04-06T06:12:23.460Z,14.69
2023-04-06T06:13:23.368Z,13.80
2023-04-06T06:14:23.300Z,14.5
2023-04-06T06:15:24.479Z,13.39
2023-04-06T06:16:23.463Z,12
2023-04-06T06:17:23.887Z,13.69
2023-04-06T06:18:23.233Z,14.30
2023-04-06T06:19:23.059Z,13.19
2023-04-06T06:20:23.419Z,13.5
2023-04-06T06:21:24.048Z,13.39
2023-04-06T06:22:23.886Z,12.69
2023-04-06T06:23:23.496Z,13.30
2023-04-06T06:24:23.208Z,13.10
2023-04-06T06:25:23.833Z,12.89
2023-04-06T06:26:23.204Z,12.5
2023-04-06T06:27:23.329Z,13.30
2023-04-06T06:28:23.153Z,13.60
2023-04-06T06:29:23.374Z,13.30
2023-04-06T06:30:23.754Z,12.80
2023-04-06T06:31:23.749Z,11.69
2023-04-06T06:32:23.865Z,12.30
2023-04-06T06:33:23.386Z,13.19
2023-04-06T06:34:24.208Z,12.39
2023-04-06T06:35:24.426Z,11.19
2023-04-06T06:36:23.239Z,14.30
2023-04-06T06:37:22.993Z,11.69
2023-04-06T06:38:24.073Z,12.19
2023-04-06T06:39:23.734Z,12.89
2023-04-06T06:40:28.690Z,13
2023-04-06T06:41:23.157Z,13.10
2023-04-06T06:42:25.096Z,13.80
2023-04-06T06:43:23.373Z,13
2023-04-06T06:44:23.161Z,12
2023-04-06T06:45:24.203Z,14.60
2023-04-06T06:46:23.768Z,14
2023-04-06T06:47:24.195Z,12.89
2023-04-06T06:48:23.763Z,14
2023-04-06T06:49:23.702Z,13.80
2023-04-06T06:50:23.787Z,14
2023-04-06T06:51:23.872Z,11.89
2023-04-06T06:52:31.105Z,12.19
2023-04-06T06:53:23.043Z,13.60
2023-04-06T06:54:23.162Z,11.80
2023-04-06T06:55:23.909Z,13.5
2023-04-06T06:56:24.474Z,11.5
2023-04-06T06:57:23.453Z,11.60
2023-04-06T06:58:23.531Z,12.69
2023-04-06T06:59:23.135Z,11.60
2023-04-06T07:00:24.304Z,13.30
2023-04-06T07:01:23.918Z,12.19
2023-04-06T07:02:37.196Z,11.39
2023-04-06T07:03:23.420Z,12.39
2023-04-06T07:04:23.351Z,11.89
2023-04-06T07:05:27.659Z,11.80
2023-04-06T07:06:23.626Z,13.60
2023-04-06T07:07:24.011Z,14.10
2023-04-06T07:08:23.558Z,12.10
2023-04-06T07:10:23.475Z,12.30
2023-04-06T07:11:23.025Z,13.80
2023-04-06T07:12:24.130Z,15
2023-04-06T07:13:23.059Z,13.5
2023-04-06T07:14:23.912Z,11.80
2023-04-06T07:15:23.624Z,14.10
2023-04-06T07:16:23.726Z,15.80
2023-04-06T07:17:23.868Z,15.19
2023-04-06T07:18:23.277Z,13.60
2023-04-06T07:19:23.269Z,12.69
2023-04-06T07:20:23.822Z,14.30
2023-04-06T07:21:23.931Z,14.10
2023-04-06T07:22:23.990Z,15.30
2023-04-06T07:23:23.260Z,14.60
2023-04-06T07:24:23.082Z,14
2023-04-06T07:25:25.709Z,14.19
2023-04-06T07:26:23.855Z,14
2023-04-06T07:27:24.745Z,13.89
2023-04-06T07:28:24.203Z,14.10
2023-04-06T07:29:23.648Z,14
2023-04-06T07:31:24.133Z,14.89
2023-04-06T07:32:24.390Z,12.60
2023-04-06T07:33:23.932Z,12.69
2023-04-06T07:34:23.608Z,14.10
2023-04-06T07:35:23.990Z,16.20
2023-04-06T07:36:23.265Z,13.19
2023-04-06T07:37:23.982Z,14.19
2023-04-06T07:38:23.817Z,14
2023-04-06T07:39:23.762Z,13.80
2023-04-06T07:40:23.540Z,14.39
2023-04-06T07:41:23.492Z,15.19
2023-04-06T07:42:23.806Z,14.30
2023-04-06T07:43:23.828Z,14.69
2023-04-06T07:44:23.854Z,14.30
2023-04-06T07:45:23.786Z,15.5
2023-04-06T07:46:23.276Z,14.69
2023-04-06T07:47:23.731Z,15.5
2023-04-06T07:48:23.822Z,13.89
2023-04-06T07:49:23.489Z,22.5
2023-04-06T07:50:23.609Z,14.89
2023-04-06T07:51:23.501Z,14.60
2023-04-06T07:52:23.854Z,17.10
2023-04-06T07:53:23.931Z,16.39
2023-04-06T07:54:23.843Z,14.39
2023-04-06T07:55:24.339Z,13.89
2023-04-06T07:56:23.784Z,15.69
2023-04-06T07:57:24.312Z,15.5
2023-04-06T07:58:23.679Z,15.10
2023-04-06T07:59:22.885Z,14.30
2023-04-06T08:00:24.593Z,14
2023-04-06T08:01:23.911Z,13.89
2023-04-06T08:02:24.089Z,16.5
2023-04-06T08:03:23.944Z,14.5
2023-04-06T08:04:23.442Z,16.29
2023-04-06T08:05:23.784Z,17.89
2023-04-06T08:06:23.687Z,15.30
2023-04-06T08:07:23.806Z,13.89
2023-04-06T08:08:23.920Z,17.20
2023-04-06T08:09:23.901Z,14.30
2023-04-06T08:10:24.118Z,16.29
2023-04-06T08:11:24.018Z,14.39
2023-04-06T08:13:24.435Z,14.19
2023-04-06T08:14:24.135Z,14.69
2023-04-06T08:15:23.778Z,13.30
2023-04-06T08:16:24.134Z,14.5
2023-04-06T08:17:23.356Z,14.39
2023-04-06T08:18:23.747Z,15.5
2023-04-06T08:19:23.949Z,14.89
2023-04-06T08:20:23.773Z,16
2023-04-06T08:21:23.672Z,14.39
2023-04-06T08:23:23.656Z,18.79
2023-04-06T08:24:24.024Z,13.30
2023-04-06T08:25:23.920Z,14.19
2023-04-06T08:27:23.266Z,14.10
2023-04-06T08:28:24.298Z,14.60
2023-04-06T08:29:23.672Z,13.30
2023-04-06T08:30:24.110Z,14.69
2023-04-06T08:31:23.395Z,14.60
2023-04-06T08:32:23.643Z,12.89
2023-04-06T08:33:23.620Z,14.19
2023-04-06T08:34:24.611Z,13.80
2023-04-06T08:35:24.256Z,13.10
2023-04-06T08:36:23.932Z,16.10
2023-04-06T08:37:23.646Z,15.10
2023-04-06T08:38:23.905Z,14.30
2023-04-06T08:39:23.768Z,14.10
2023-04-06T08:40:23.125Z,15
2023-04-06T08:41:24.622Z,14.30
2023-04-06T08:42:23.822Z,12
2023-04-06T08:43:23.361Z,12.60
2023-04-06T08:44:23.885Z,13.30
2023-04-06T08:45:24.124Z,14.5
2023-04-06T08:46:23.564Z,13.89
2023-04-06T08:47:24.953Z,13.30
2023-04-06T08:48:23.952Z,13.80
2023-04-06T08:49:23.567Z,15
2023-04-06T08:50:23.443Z,14.80
2023-04-06T08:51:23.553Z,15.10
2023-04-06T08:52:23.094Z,14.30
2023-04-06T08:53:24.422Z,15.10
2023-04-06T08:54:23.633Z,13.10
2023-04-06T08:55:24.211Z,14.39
2023-04-06T08:56:23.340Z,14.60
2023-04-06T08:57:23.079Z,14
2023-04-06T08:59:23.745Z,13.89
2023-04-06T09:01:23.434Z,13
2023-04-06T09:02:23.268Z,14.10
2023-04-06T09:03:23.223Z,14.5
2023-04-06T09:04:24.003Z,13
2023-04-06T09:05:23.068Z,13.89
2023-04-06T09:06:23.360Z,14.39
2023-04-06T09:07:23.447Z,14.60
2023-04-06T09:08:24.072Z,13.69
2023-04-06T09:09:24.759Z,13.60
2023-04-06T09:10:24.166Z,14.39
2023-04-06T09:11:28.232Z,14.10
2023-04-06T09:12:23.247Z,14.30
2023-04-06T09:13:22.875Z,13.30
2023-04-06T09:14:23.777Z,14.5
2023-04-06T09:15:24.816Z,15.10
2023-04-06T09:16:24.364Z,13.80
2023-04-06T09:17:23.494Z,13.5
2023-04-06T09:18:23.518Z,14
2023-04-06T09:19:23.396Z,15.39
2023-04-06T09:20:23.676Z,13.60
2023-04-06T09:21:26.027Z,15.30
2023-04-06T09:22:23.335Z,14.30
2023-04-06T09:23:23.833Z,13.10
2023-04-06T09:24:23.955Z,14.5
2023-04-06T09:25:23.732Z,14.80
2023-04-06T09:26:23.552Z,14.39
2023-04-06T09:28:23.154Z,15.60
2023-04-06T09:29:24.041Z,14.30
2023-04-06T09:30:24.235Z,15.69
2023-04-06T09:31:24.148Z,14.10
2023-04-06T09:32:23.161Z,14.69
2023-04-06T09:33:23.977Z,14.60
2023-04-06T09:34:23.352Z,13.89
2023-04-06T09:35:23.251Z,15.5
2023-04-06T09:36:23.465Z,16.5
2023-04-06T09:37:23.352Z,16.39
2023-04-06T09:38:24.032Z,15.10
2023-04-06T09:40:23.527Z,16.39
2023-04-06T09:41:23.023Z,14.5
2023-04-06T09:42:23.580Z,14.10
2023-04-06T09:44:23.188Z,14.5
2023-04-06T09:45:43.184Z,13.39
2023-04-06T09:46:23.423Z,17.10
2023-04-06T09:47:42.402Z,14
2023-04-06T09:48:23.946Z,13.60
2023-04-06T09:49:22.970Z,16.10
2023-04-06T09:50:23.325Z,14.30
2023-04-06T09:51:23.401Z,16.20
2023-04-06T09:52:23.964Z,17
2023-04-06T09:53:23.111Z,14.30
2023-04-06T09:54:23.179Z,15.19
2023-04-06T09:55:23.182Z,14.80
2023-04-06T09:56:23.488Z,13.39
2023-04-06T09:57:23.396Z,14.89
2023-04-06T09:58:23.522Z,14.39
2023-04-06T09:59:23.890Z,14.80
2023-04-06T10:00:24.522Z,15.30
2023-04-06T10:01:23.149Z,14.80
2023-04-06T10:02:23.320Z,13.80
2023-04-06T10:03:23.305Z,15.5
2023-04-06T10:04:22.927Z,15.19
2023-04-06T10:05:23.594Z,15.69
2023-04-06T10:06:23.211Z,14.10
2023-04-06T10:08:23.828Z,14.5
2023-04-06T10:09:23.698Z,15
2023-04-06T10:10:23.539Z,13.39
2023-04-06T10:11:23.359Z,15.80
2023-04-06T10:12:23.107Z,15
2023-04-06T10:13:23.467Z,15.89
2023-04-06T10:14:23.368Z,13.80
2023-04-06T10:15:23.997Z,15.39
2023-04-06T10:16:23.245Z,15.69
2023-04-06T10:17:23.878Z,14.69
2023-04-06T10:18:23.814Z,14.39
2023-04-06T10:19:23.942Z,14
2023-04-06T10:20:23.515Z,13.60
2023-04-06T10:21:23.529Z,13.30
2023-04-06T10:22:23.598Z,13.69
2023-04-06T10:23:23.184Z,14.60
2023-04-06T10:24:23.779Z,15.89
2023-04-06T10:25:23.855Z,13.80
2023-04-06T10:26:23.644Z,14.60
2023-04-06T10:27:23.938Z,17.10
2023-04-06T10:28:23.627Z,15.10
2023-04-06T10:29:23.548Z,14.60
2023-04-06T10:30:24.289Z,13.69
2023-04-06T10:31:23.397Z,13.5
2023-04-06T10:32:23.397Z,15.89
2023-04-06T10:33:23.335Z,15.10
2023-04-06T10:34:23.376Z,13.60
2023-04-06T10:35:23.813Z,15.69
2023-04-06T10:36:23.724Z,15.5
2023-04-06T10:37:23.704Z,15
2023-04-06T10:38:23.930Z,14.60
2023-04-06T10:39:23.711Z,16.5
2023-04-06T10:40:23.740Z,15.19
2023-04-06T10:41:23.244Z,16.10
2023-04-06T10:42:23.975Z,15.89
2023-04-06T10:43:23.452Z,15.60
2023-04-06T10:44:23.842Z,18
2023-04-06T10:45:24.197Z,15.80
2023-04-06T10:46:23.436Z,17.20
2023-04-06T10:47:23.610Z,16
2023-04-06T10:48:23.366Z,16.79
2023-04-06T10:49:23.109Z,15.30
2023-04-06T10:50:23.664Z,14.80
2023-04-06T10:51:23.482Z,15
2023-04-06T10:52:23.405Z,15.69
2023-04-06T10:53:23.248Z,15.19
2023-04-06T10:54:23.762Z,16.39
2023-04-06T10:55:23.425Z,16.5
2023-04-06T10:56:23.612Z,15.80
2023-04-06T10:57:23.543Z,14.60
2023-04-06T10:58:23.531Z,14.5
2023-04-06T10:59:23.753Z,14
2023-04-06T11:00:25.266Z,14.19
2023-04-06T11:01:23.658Z,15.89
2023-04-06T11:02:23.614Z,13.30
2023-04-06T11:03:23.649Z,13.5
2023-04-06T11:04:23.873Z,14.80
2023-04-06T11:05:23.434Z,14.60
2023-04-06T11:06:22.840Z,12.30
2023-04-06T11:07:23.401Z,14.89
2023-04-06T11:08:23.265Z,14.60
2023-04-06T11:09:23.904Z,14.19
2023-04-06T11:11:23.448Z,15.5
2023-04-06T11:12:23.400Z,12.80
2023-04-06T11:13:23.281Z,12.10
2023-04-06T11:14:23.341Z,13.80
2023-04-06T11:15:23.558Z,14.60
2023-04-06T11:16:23.734Z,12.89
2023-04-06T11:17:23.080Z,13.89
2023-04-06T11:18:23.320Z,13.19
2023-04-06T11:19:23.691Z,13.30
2023-04-06T11:20:23.528Z,13.60
2023-04-06T11:21:23.568Z,12.39
2023-04-06T11:22:22.974Z,11.30
2023-04-06T11:23:23.314Z,11.19
2023-04-06T11:24:23.090Z,11.69
2023-04-06T11:25:23.225Z,11.30
2023-04-06T11:26:23.998Z,11.60
2023-04-06T11:27:23.893Z,12.30
2023-04-06T11:28:23.667Z,12.39
2023-04-06T11:29:23.796Z,11.10
2023-04-06T11:30:28.930Z,12.10
2023-04-06T11:31:23.777Z,12.5
2023-04-06T11:32:28.494Z,12.69
2023-04-06T11:33:22.968Z,11.69
2023-04-06T11:34:28.595Z,11.80
2023-04-06T11:36:28.258Z,11.5
2023-04-06T11:37:23.372Z,11.19
2023-04-06T11:38:28.477Z,13
2023-04-06T11:39:23.873Z,11.5
2023-04-06T11:40:23.598Z,18
2023-04-06T11:41:23.418Z,12.10
2023-04-06T11:42:23.512Z,12
2023-04-06T11:43:23.310Z,12.10
2023-04-06T11:45:23.582Z,12.60
2023-04-06T11:46:31.199Z,11.5
2023-04-06T11:47:23.614Z,10.80
2023-04-06T11:48:24.633Z,11.19
2023-04-06T11:49:23.659Z,13.80
2023-04-06T11:50:23.453Z,11.60
2023-04-06T11:51:23.258Z,10.5
2023-04-06T11:52:37.677Z,12.19
2023-04-06T11:53:23.253Z,11.69
2023-04-06T11:54:23.685Z,12.39
2023-04-06T11:56:23.361Z,12
2023-04-06T11:57:23.295Z,11.89
2023-04-06T11:58:23.561Z,12.30
2023-04-06T11:59:23.851Z,10
2023-04-06T12:00:24.083Z,12.19
2023-04-06T12:01:24.129Z,10.69
2023-04-06T12:02:38.518Z,11.10
2023-04-06T12:04:42.642Z,11.80
2023-04-06T12:05:23.972Z,10.80
2023-04-06T12:06:23.380Z,10.89
2023-04-06T12:07:23.312Z,10.69
2023-04-06T12:08:23.640Z,11.10
2023-04-06T12:09:23.766Z,11.19
2023-04-06T12:10:24.005Z,10.80
2023-04-06T12:11:24.054Z,10.19
2023-04-06T12:12:23.953Z,12.39
2023-04-06T12:13:23.577Z,12.80
2023-04-06T12:14:23.387Z,11.89
2023-04-06T12:15:23.511Z,9.5
2023-04-06T12:16:23.829Z,9.399
2023-04-06T12:17:24.010Z,9.899
2023-04-06T12:18:24.099Z,11.5
2023-04-06T12:19:23.619Z,10.69
2023-04-06T12:20:27.104Z,11.39
2023-04-06T12:21:23.111Z,10.10
2023-04-06T12:22:23.178Z,9.800
2023-04-06T12:23:23.128Z,11.30
2023-04-06T12:24:23.880Z,9.199
2023-04-06T12:25:24.159Z,11.89
2023-04-06T12:26:23.283Z,9.899
2023-04-06T12:27:24.412Z,10.5
2023-04-06T12:28:23.705Z,9.300
2023-04-06T12:29:24.765Z,10.80
2023-04-06T12:31:27.009Z,10.5
2023-04-06T12:32:23.483Z,9.5
2023-04-06T12:33:23.971Z,9.699
2023-04-06T12:34:24.297Z,10.5
2023-04-06T12:35:23.276Z,12.30
2023-04-06T12:36:23.573Z,10.19
2023-04-06T12:38:23.051Z,10.5
2023-04-06T12:39:23.900Z,10
2023-04-06T12:40:24.022Z,11.69
2023-04-06T12:41:23.644Z,11.19
2023-04-06T12:42:23.737Z,9.5
2023-04-06T12:43:23.774Z,10
2023-04-06T12:44:25.406Z,9.699
2023-04-06T12:45:23.445Z,9.600
2023-04-06T12:46:23.354Z,10.5
2023-04-06T12:47:23.278Z,11
2023-04-06T12:48:23.297Z,11.19
2023-04-06T12:49:23.268Z,10
2023-04-06T12:50:23.543Z,10.39
2023-04-06T12:51:23.146Z,10.89
2023-04-06T12:52:23.940Z,11.5
2023-04-06T12:54:23.736Z,11.60
2023-04-06T12:55:23.452Z,11.39
2023-04-06T12:56:23.395Z,13.39
2023-04-06T12:57:23.357Z,13.10
2023-04-06T12:58:23.422Z,11.39
2023-04-06T12:59:23.589Z,12.89
2023-04-06T13:00:24.386Z,10.89
2023-04-06T13:01:23.515Z,11.89
2023-04-06T13:02:23.475Z,12.39
2023-04-06T13:03:23.426Z,12.10
2023-04-06T13:04:23.322Z,12
2023-04-06T13:05:23.058Z,11.10
2023-04-06T13:06:23.429Z,9.800
2023-04-06T13:07:23.097Z,11
2023-04-06T13:08:23.394Z,11.60
2023-04-06T13:09:23.268Z,12.39
2023-04-06T13:10:23.739Z,10.80
2023-04-06T13:11:23.382Z,10.5
2023-04-06T13:12:23.867Z,10
2023-04-06T13:13:23.411Z,10.69
2023-04-06T13:14:23.841Z,10.39
2023-04-06T13:15:23.434Z,12.30
2023-04-06T13:16:23.533Z,10.10
2023-04-06T13:17:23.550Z,11.69
2023-04-06T13:18:23.589Z,10.5
2023-04-06T13:19:23.262Z,11.30
2023-04-06T13:20:24.113Z,11.10
2023-04-06T13:21:23.640Z,10.80
2023-04-06T13:22:22.876Z,13.5
2023-04-06T13:23:23.410Z,11.30
2023-04-06T13:24:23.018Z,10.80
2023-04-06T13:25:23.806Z,11.10
2023-04-06T13:26:23.741Z,12.10
2023-04-06T13:27:23.416Z,12
2023-04-06T13:28:23.297Z,12.39
2023-04-06T13:29:23.182Z,10.5
2023-04-06T13:30:23.779Z,11.10
2023-04-06T13:31:23.481Z,9.300
2023-04-06T13:32:23.544Z,10.30
2023-04-06T13:33:23.248Z,10.10
2023-04-06T13:34:23.412Z,10.19
2023-04-06T13:35:23.203Z,9
2023-04-06T13:36:23.229Z,9.899
2023-04-06T13:37:23.055Z,8.699
2023-04-06T13:38:23.591Z,9.899
2023-04-06T13:39:23.412Z,8.5
2023-04-06T13:40:23.964Z,8.800
2023-04-06T13:41:23.221Z,8.199
2023-04-06T13:42:23.338Z,10